sensor_id;sensor_type;location;lat;lon;timestamp;P1;durP1;ratioP1;P2;durP2;ratioP2
61840;SDS011;47773;53.174;6.614;2023-05-10T00:02:25;8.38;;;7.15;;
61840;SDS011;47773;53.174;6.614;2023-05-10T00:04:51;9.70;;;7.47;;
61840;SDS011;47773;53.174;6.614;2023-05-10T00:07:17;10.30;;;7.18;;
61840;SDS011;47773;53.174;6.614;2023-05-10T00:09:43;10.30;;;7.85;;
61840;SDS011;47773;53.174;6.614;2023-05-10T00:12:09;8.70;;;6.90;;
61840;SDS011;47773;53.174;6.614;2023-05-10T00:14:34;9.05;;;7.22;;
61840;SDS011;47773;53.174;6.614;2023-05-10T00:17:00;10.55;;;8.05;;
61840;SDS011;47773;53.174;6.614;2023-05-10T00:19:26;9.13;;;7.18;;
61840;SDS011;47773;53.174;6.614;2023-05-10T00:21:52;10.65;;;7.63;;
61840;SDS011;47773;53.174;6.614;2023-05-10T00:24:17;9.13;;;7.35;;
61840;SDS011;47773;53.174;6.614;2023-05-10T00:26:43;8.52;;;7.45;;
61840;SDS011;47773;53.174;6.614;2023-05-10T00:29:09;9.98;;;6.90;;
61840;SDS011;47773;53.174;6.614;2023-05-10T00:31:35;10.55;;;7.45;;
61840;SDS011;47773;53.174;6.614;2023-05-10T00:34:00;10.02;;;7.47;;
61840;SDS011;47773;53.174;6.614;2023-05-10T00:36:26;9.70;;;7.65;;
61840;SDS011;47773;53.174;6.614;2023-05-10T00:38:52;10.63;;;7.90;;
61840;SDS011;47773;53.174;6.614;2023-05-10T00:41:18;11.35;;;8.00;;
61840;SDS011;47773;53.174;6.614;2023-05-10T00:43:44;9.93;;;7.63;;
61840;SDS011;47773;53.174;6.614;2023-05-10T00:46:09;11.02;;;7.57;;
61840;SDS011;47773;53.174;6.614;2023-05-10T00:48:35;9.50;;;7.65;;
61840;SDS011;47773;53.174;6.614;2023-05-10T00:51:01;9.32;;;7.50;;
61840;SDS011;47773;53.174;6.614;2023-05-10T00:53:28;10.98;;;7.25;;
61840;SDS011;47773;53.174;6.614;2023-05-10T00:55:56;11.93;;;8.07;;
61840;SDS011;47773;53.174;6.614;2023-05-10T00:58:21;8.85;;;7.30;;
61840;SDS011;47773;53.174;6.614;2023-05-10T01:00:49;8.90;;;7.65;;
61840;SDS011;47773;53.174;6.614;2023-05-10T01:03:15;8.50;;;6.95;;
61840;SDS011;47773;53.174;6.614;2023-05-10T01:05:42;8.40;;;6.50;;
61840;SDS011;47773;53.174;6.614;2023-05-10T01:08:07;9.18;;;7.03;;
61840;SDS011;47773;53.174;6.614;2023-05-10T01:10:33;8.15;;;6.55;;
61840;SDS011;47773;53.174;6.614;2023-05-10T01:12:59;8.10;;;6.57;;
61840;SDS011;47773;53.174;6.614;2023-05-10T01:15:25;9.23;;;6.45;;
61840;SDS011;47773;53.174;6.614;2023-05-10T01:17:53;8.52;;;6.35;;
61840;SDS011;47773;53.174;6.614;2023-05-10T01:20:19;8.60;;;6.30;;
61840;SDS011;47773;53.174;6.614;2023-05-10T01:22:58;6.43;;;5.55;;
61840;SDS011;47773;53.174;6.614;2023-05-10T01:29:11;7.28;;;5.47;;
61840;SDS011;47773;53.174;6.614;2023-05-10T01:32:06;6.03;;;5.10;;
61840;SDS011;47773;53.174;6.614;2023-05-10T01:34:46;7.35;;;5.35;;
61840;SDS011;47773;53.174;6.614;2023-05-10T01:37:15;7.35;;;5.65;;
61840;SDS011;47773;53.174;6.614;2023-05-10T01:39:52;7.68;;;5.93;;
61840;SDS011;47773;53.174;6.614;2023-05-10T01:42:25;7.53;;;5.68;;
61840;SDS011;47773;53.174;6.614;2023-05-10T01:47:44;8.05;;;6.07;;
61840;SDS011;47773;53.174;6.614;2023-05-10T01:50:15;9.27;;;6.32;;
61840;SDS011;47773;53.174;6.614;2023-05-10T01:52:44;8.43;;;6.57;;
61840;SDS011;47773;53.174;6.614;2023-05-10T01:55:16;9.75;;;7.28;;
61840;SDS011;47773;53.174;6.614;2023-05-10T01:57:46;8.32;;;6.60;;
61840;SDS011;47773;53.174;6.614;2023-05-10T02:00:15;9.32;;;6.70;;
61840;SDS011;47773;53.174;6.614;2023-05-10T02:02:46;7.93;;;6.25;;
61840;SDS011;47773;53.174;6.614;2023-05-10T02:05:15;8.52;;;6.82;;
61840;SDS011;47773;53.174;6.614;2023-05-10T02:07:42;8.85;;;6.88;;
61840;SDS011;47773;53.174;6.614;2023-05-10T02:10:09;9.40;;;6.88;;
61840;SDS011;47773;53.174;6.614;2023-05-10T02:12:37;8.50;;;6.82;;
61840;SDS011;47773;53.174;6.614;2023-05-10T02:15:07;9.27;;;7.13;;
61840;SDS011;47773;53.174;6.614;2023-05-10T02:17:34;11.30;;;7.63;;
61840;SDS011;47773;53.174;6.614;2023-05-10T02:20:02;11.10;;;7.72;;
61840;SDS011;47773;53.174;6.614;2023-05-10T02:22:29;11.30;;;7.63;;
61840;SDS011;47773;53.174;6.614;2023-05-10T02:24:56;10.27;;;8.00;;
61840;SDS011;47773;53.174;6.614;2023-05-10T02:27:24;10.50;;;7.30;;
61840;SDS011;47773;53.174;6.614;2023-05-10T02:29:52;10.35;;;7.38;;
61840;SDS011;47773;53.174;6.614;2023-05-10T02:32:19;11.32;;;7.88;;
61840;SDS011;47773;53.174;6.614;2023-05-10T02:34:47;8.95;;;6.57;;
61840;SDS011;47773;53.174;6.614;2023-05-10T02:37:17;9.38;;;7.13;;
61840;SDS011;47773;53.174;6.614;2023-05-10T02:39:46;10.65;;;6.72;;
61840;SDS011;47773;53.174;6.614;2023-05-10T02:42:15;8.73;;;6.55;;
61840;SDS011;47773;53.174;6.614;2023-05-10T02:44:45;11.75;;;6.70;;
61840;SDS011;47773;53.174;6.614;2023-05-10T02:47:13;10.18;;;7.13;;
61840;SDS011;47773;53.174;6.614;2023-05-10T02:49:39;11.02;;;6.85;;
61840;SDS011;47773;53.174;6.614;2023-05-10T02:52:05;9.93;;;7.40;;
61840;SDS011;47773;53.174;6.614;2023-05-10T02:54:35;10.95;;;7.43;;
61840;SDS011;47773;53.174;6.614;2023-05-10T02:57:09;10.60;;;7.20;;
61840;SDS011;47773;53.174;6.614;2023-05-10T02:59:40;11.50;;;7.53;;
61840;SDS011;47773;53.174;6.614;2023-05-10T03:02:08;11.18;;;7.15;;
61840;SDS011;47773;53.174;6.614;2023-05-10T03:04:35;9.98;;;7.70;;
61840;SDS011;47773;53.174;6.614;2023-05-10T03:07:01;10.88;;;7.95;;
61840;SDS011;47773;53.174;6.614;2023-05-10T03:09:26;10.85;;;7.25;;
61840;SDS011;47773;53.174;6.614;2023-05-10T03:17:35;14.55;;;8.23;;
61840;SDS011;47773;53.174;6.614;2023-05-10T03:20:16;12.50;;;8.43;;
61840;SDS011;47773;53.174;6.614;2023-05-10T03:23:02;14.25;;;8.95;;
61840;SDS011;47773;53.174;6.614;2023-05-10T03:25:49;12.98;;;9.10;;
61840;SDS011;47773;53.174;6.614;2023-05-10T03:28:16;16.10;;;9.25;;
61840;SDS011;47773;53.174;6.614;2023-05-10T03:30:43;14.50;;;9.82;;
61840;SDS011;47773;53.174;6.614;2023-05-10T03:33:09;14.48;;;9.80;;
61840;SDS011;47773;53.174;6.614;2023-05-10T03:35:35;16.45;;;10.15;;
61840;SDS011;47773;53.174;6.614;2023-05-10T03:38:01;16.48;;;10.85;;
61840;SDS011;47773;53.174;6.614;2023-05-10T03:40:27;17.35;;;10.45;;
61840;SDS011;47773;53.174;6.614;2023-05-10T03:42:56;16.13;;;10.15;;
61840;SDS011;47773;53.174;6.614;2023-05-10T03:45:22;16.33;;;10.80;;
61840;SDS011;47773;53.174;6.614;2023-05-10T03:47:48;17.85;;;10.50;;
61840;SDS011;47773;53.174;6.614;2023-05-10T03:50:14;20.00;;;11.35;;
61840;SDS011;47773;53.174;6.614;2023-05-10T03:52:39;19.92;;;12.60;;
61840;SDS011;47773;53.174;6.614;2023-05-10T03:55:05;22.50;;;11.45;;
61840;SDS011;47773;53.174;6.614;2023-05-10T03:57:31;16.35;;;9.75;;
61840;SDS011;47773;53.174;6.614;2023-05-10T03:59:57;24.40;;;12.48;;
61840;SDS011;47773;53.174;6.614;2023-05-10T04:02:23;26.35;;;13.50;;
61840;SDS011;47773;53.174;6.614;2023-05-10T04:04:48;22.75;;;12.82;;
61840;SDS011;47773;53.174;6.614;2023-05-10T04:07:14;21.88;;;12.20;;
61840;SDS011;47773;53.174;6.614;2023-05-10T04:09:40;22.38;;;11.38;;
61840;SDS011;47773;53.174;6.614;2023-05-10T04:12:06;21.65;;;11.60;;
61840;SDS011;47773;53.174;6.614;2023-05-10T04:14:31;19.20;;;11.07;;
61840;SDS011;47773;53.174;6.614;2023-05-10T04:16:57;27.15;;;13.10;;
61840;SDS011;47773;53.174;6.614;2023-05-10T04:19:23;23.42;;;12.65;;
61840;SDS011;47773;53.174;6.614;2023-05-10T04:21:48;26.75;;;12.45;;
61840;SDS011;47773;53.174;6.614;2023-05-10T04:24:14;20.17;;;11.35;;
61840;SDS011;47773;53.174;6.614;2023-05-10T04:26:40;19.23;;;11.65;;
61840;SDS011;47773;53.174;6.614;2023-05-10T04:29:05;19.40;;;10.77;;
61840;SDS011;47773;53.174;6.614;2023-05-10T04:31:31;15.75;;;10.38;;
61840;SDS011;47773;53.174;6.614;2023-05-10T04:33:57;15.45;;;9.65;;
61840;SDS011;47773;53.174;6.614;2023-05-10T04:36:23;18.15;;;11.05;;
61840;SDS011;47773;53.174;6.614;2023-05-10T04:38:48;18.48;;;10.85;;
61840;SDS011;47773;53.174;6.614;2023-05-10T04:41:14;19.38;;;10.40;;
61840;SDS011;47773;53.174;6.614;2023-05-10T04:43:40;13.30;;;8.80;;
61840;SDS011;47773;53.174;6.614;2023-05-10T04:46:05;11.57;;;7.95;;
61840;SDS011;47773;53.174;6.614;2023-05-10T04:48:32;13.75;;;7.82;;
61840;SDS011;47773;53.174;6.614;2023-05-10T04:50:58;10.23;;;5.88;;
61840;SDS011;47773;53.174;6.614;2023-05-10T04:53:24;9.43;;;6.03;;
61840;SDS011;47773;53.174;6.614;2023-05-10T04:55:49;8.40;;;5.13;;
61840;SDS011;47773;53.174;6.614;2023-05-10T04:58:15;5.60;;;4.03;;
61840;SDS011;47773;53.174;6.614;2023-05-10T05:00:41;5.53;;;3.80;;
61840;SDS011;47773;53.174;6.614;2023-05-10T05:03:07;5.85;;;3.40;;
61840;SDS011;47773;53.174;6.614;2023-05-10T05:05:33;4.32;;;2.80;;
61840;SDS011;47773;53.174;6.614;2023-05-10T05:07:59;4.03;;;2.53;;
61840;SDS011;47773;53.174;6.614;2023-05-10T05:10:24;3.35;;;2.10;;
61840;SDS011;47773;53.174;6.614;2023-05-10T05:12:50;3.20;;;2.30;;
61840;SDS011;47773;53.174;6.614;2023-05-10T05:15:15;6.70;;;2.63;;
61840;SDS011;47773;53.174;6.614;2023-05-10T05:17:42;3.35;;;2.08;;
61840;SDS011;47773;53.174;6.614;2023-05-10T05:20:08;3.70;;;2.72;;
61840;SDS011;47773;53.174;6.614;2023-05-10T05:22:35;2.92;;;2.25;;
61840;SDS011;47773;53.174;6.614;2023-05-10T05:25:01;4.07;;;2.40;;
61840;SDS011;47773;53.174;6.614;2023-05-10T05:27:28;2.85;;;2.00;;
61840;SDS011;47773;53.174;6.614;2023-05-10T05:29:57;3.45;;;2.20;;
61840;SDS011;47773;53.174;6.614;2023-05-10T05:32:23;6.15;;;2.40;;
61840;SDS011;47773;53.174;6.614;2023-05-10T05:34:50;4.10;;;2.42;;
61840;SDS011;47773;53.174;6.614;2023-05-10T05:37:17;5.15;;;2.40;;
61840;SDS011;47773;53.174;6.614;2023-05-10T05:39:44;3.78;;;2.58;;
61840;SDS011;47773;53.174;6.614;2023-05-10T05:42:10;3.88;;;2.35;;
61840;SDS011;47773;53.174;6.614;2023-05-10T05:44:37;7.22;;;2.63;;
61840;SDS011;47773;53.174;6.614;2023-05-10T05:47:03;4.28;;;2.70;;
61840;SDS011;47773;53.174;6.614;2023-05-10T05:49:29;3.95;;;2.80;;
61840;SDS011;47773;53.174;6.614;2023-05-10T05:51:58;5.28;;;2.75;;
61840;SDS011;47773;53.174;6.614;2023-05-10T05:54:27;5.78;;;3.10;;
61840;SDS011;47773;53.174;6.614;2023-05-10T05:56:54;6.43;;;3.25;;
61840;SDS011;47773;53.174;6.614;2023-05-10T05:59:20;6.55;;;3.38;;
61840;SDS011;47773;53.174;6.614;2023-05-10T06:01:46;6.90;;;3.58;;
61840;SDS011;47773;53.174;6.614;2023-05-10T06:04:12;6.00;;;3.20;;
61840;SDS011;47773;53.174;6.614;2023-05-10T06:06:38;4.07;;;3.10;;
61840;SDS011;47773;53.174;6.614;2023-05-10T06:09:03;5.88;;;3.40;;
61840;SDS011;47773;53.174;6.614;2023-05-10T06:11:29;5.97;;;3.40;;
61840;SDS011;47773;53.174;6.614;2023-05-10T06:13:57;5.95;;;3.42;;
61840;SDS011;47773;53.174;6.614;2023-05-10T06:16:23;6.32;;;3.40;;
61840;SDS011;47773;53.174;6.614;2023-05-10T06:18:49;5.63;;;3.03;;
61840;SDS011;47773;53.174;6.614;2023-05-10T06:21:14;5.55;;;3.08;;
61840;SDS011;47773;53.174;6.614;2023-05-10T06:23:41;5.35;;;2.70;;
61840;SDS011;47773;53.174;6.614;2023-05-10T06:26:07;3.35;;;2.15;;
61840;SDS011;47773;53.174;6.614;2023-05-10T06:28:32;3.25;;;2.00;;
61840;SDS011;47773;53.174;6.614;2023-05-10T06:30:58;2.90;;;1.65;;
61840;SDS011;47773;53.174;6.614;2023-05-10T06:33:24;1.83;;;1.30;;
61840;SDS011;47773;53.174;6.614;2023-05-10T06:35:50;2.35;;;1.17;;
61840;SDS011;47773;53.174;6.614;2023-05-10T06:38:17;2.22;;;1.20;;
61840;SDS011;47773;53.174;6.614;2023-05-10T06:40:42;1.75;;;1.45;;
61840;SDS011;47773;53.174;6.614;2023-05-10T06:43:08;2.72;;;1.92;;
61840;SDS011;47773;53.174;6.614;2023-05-10T06:45:35;3.00;;;1.90;;
61840;SDS011;47773;53.174;6.614;2023-05-10T06:48:00;4.47;;;3.10;;
61840;SDS011;47773;53.174;6.614;2023-05-10T06:50:26;4.93;;;3.50;;
61840;SDS011;47773;53.174;6.614;2023-05-10T06:52:52;6.63;;;4.30;;
61840;SDS011;47773;53.174;6.614;2023-05-10T06:55:18;7.70;;;4.55;;
61840;SDS011;47773;53.174;6.614;2023-05-10T06:57:43;8.48;;;4.63;;
61840;SDS011;47773;53.174;6.614;2023-05-10T07:00:09;6.97;;;4.20;;
61840;SDS011;47773;53.174;6.614;2023-05-10T07:02:35;6.93;;;4.25;;
61840;SDS011;47773;53.174;6.614;2023-05-10T07:05:01;7.22;;;4.40;;
61840;SDS011;47773;53.174;6.614;2023-05-10T07:07:27;9.65;;;4.78;;
61840;SDS011;47773;53.174;6.614;2023-05-10T07:09:53;6.32;;;3.75;;
61840;SDS011;47773;53.174;6.614;2023-05-10T07:12:19;7.53;;;3.20;;
61840;SDS011;47773;53.174;6.614;2023-05-10T07:14:45;5.40;;;2.90;;
61840;SDS011;47773;53.174;6.614;2023-05-10T07:17:11;4.32;;;2.45;;
61840;SDS011;47773;53.174;6.614;2023-05-10T07:19:37;5.40;;;3.10;;
61840;SDS011;47773;53.174;6.614;2023-05-10T07:22:02;4.03;;;2.50;;
61840;SDS011;47773;53.174;6.614;2023-05-10T07:24:28;3.97;;;2.30;;
61840;SDS011;47773;53.174;6.614;2023-05-10T07:26:54;3.70;;;2.40;;
61840;SDS011;47773;53.174;6.614;2023-05-10T07:29:20;4.70;;;2.20;;
61840;SDS011;47773;53.174;6.614;2023-05-10T07:31:46;3.08;;;2.00;;
61840;SDS011;47773;53.174;6.614;2023-05-10T07:34:11;2.75;;;2.25;;
61840;SDS011;47773;53.174;6.614;2023-05-10T07:36:37;3.40;;;1.90;;
61840;SDS011;47773;53.174;6.614;2023-05-10T07:39:03;3.53;;;1.88;;
61840;SDS011;47773;53.174;6.614;2023-05-10T07:41:29;3.45;;;2.13;;
61840;SDS011;47773;53.174;6.614;2023-05-10T07:43:54;3.33;;;2.13;;
61840;SDS011;47773;53.174;6.614;2023-05-10T07:46:20;2.90;;;1.90;;
61840;SDS011;47773;53.174;6.614;2023-05-10T07:48:46;3.90;;;2.35;;
61840;SDS011;47773;53.174;6.614;2023-05-10T07:51:11;3.88;;;2.38;;
61840;SDS011;47773;53.174;6.614;2023-05-10T07:53:37;4.15;;;2.42;;
61840;SDS011;47773;53.174;6.614;2023-05-10T07:56:20;4.30;;;2.22;;
61840;SDS011;47773;53.174;6.614;2023-05-10T07:58:52;3.90;;;2.38;;
61840;SDS011;47773;53.174;6.614;2023-05-10T08:01:19;3.72;;;2.00;;
61840;SDS011;47773;53.174;6.614;2023-05-10T08:03:45;2.60;;;1.88;;
61840;SDS011;47773;53.174;6.614;2023-05-10T08:06:11;3.90;;;2.00;;
61840;SDS011;47773;53.174;6.614;2023-05-10T08:08:37;2.58;;;2.00;;
61840;SDS011;47773;53.174;6.614;2023-05-10T08:11:03;3.58;;;2.17;;
61840;SDS011;47773;53.174;6.614;2023-05-10T08:13:28;1.98;;;1.77;;
61840;SDS011;47773;53.174;6.614;2023-05-10T08:15:54;4.45;;;2.38;;
61840;SDS011;47773;53.174;6.614;2023-05-10T08:18:20;3.60;;;2.47;;
61840;SDS011;47773;53.174;6.614;2023-05-10T08:20:46;3.67;;;2.35;;
61840;SDS011;47773;53.174;6.614;2023-05-10T08:23:14;5.60;;;2.70;;
61840;SDS011;47773;53.174;6.614;2023-05-10T08:25:40;5.25;;;2.90;;
61840;SDS011;47773;53.174;6.614;2023-05-10T08:28:06;4.15;;;2.80;;
61840;SDS011;47773;53.174;6.614;2023-05-10T08:30:31;5.50;;;2.60;;
61840;SDS011;47773;53.174;6.614;2023-05-10T08:32:57;4.75;;;2.75;;
61840;SDS011;47773;53.174;6.614;2023-05-10T08:35:23;4.78;;;2.95;;
61840;SDS011;47773;53.174;6.614;2023-05-10T08:37:49;5.05;;;3.05;;
61840;SDS011;47773;53.174;6.614;2023-05-10T08:40:15;4.40;;;2.80;;
61840;SDS011;47773;53.174;6.614;2023-05-10T08:42:45;4.32;;;2.80;;
61840;SDS011;47773;53.174;6.614;2023-05-10T08:45:21;8.73;;;2.38;;
61840;SDS011;47773;53.174;6.614;2023-05-10T08:47:48;7.68;;;2.50;;
61840;SDS011;47773;53.174;6.614;2023-05-10T08:50:15;4.25;;;2.50;;
61840;SDS011;47773;53.174;6.614;2023-05-10T08:52:42;3.33;;;2.30;;
61840;SDS011;47773;53.174;6.614;2023-05-10T08:55:10;3.97;;;2.70;;
61840;SDS011;47773;53.174;6.614;2023-05-10T08:57:36;13.50;;;2.75;;
61840;SDS011;47773;53.174;6.614;2023-05-10T09:00:02;4.53;;;2.58;;
61840;SDS011;47773;53.174;6.614;2023-05-10T09:02:28;6.80;;;2.55;;
61840;SDS011;47773;53.174;6.614;2023-05-10T09:04:53;3.55;;;2.72;;
61840;SDS011;47773;53.174;6.614;2023-05-10T09:07:19;4.30;;;2.80;;
61840;SDS011;47773;53.174;6.614;2023-05-10T09:09:45;8.52;;;3.03;;
61840;SDS011;47773;53.174;6.614;2023-05-10T09:12:12;6.88;;;3.40;;
61840;SDS011;47773;53.174;6.614;2023-05-10T09:14:40;5.85;;;3.50;;
61840;SDS011;47773;53.174;6.614;2023-05-10T09:17:07;5.10;;;3.65;;
61840;SDS011;47773;53.174;6.614;2023-05-10T09:19:33;6.35;;;3.85;;
61840;SDS011;47773;53.174;6.614;2023-05-10T09:21:59;4.65;;;3.33;;
61840;SDS011;47773;53.174;6.614;2023-05-10T09:24:27;6.28;;;3.70;;
61840;SDS011;47773;53.174;6.614;2023-05-10T09:26:54;6.68;;;3.28;;
61840;SDS011;47773;53.174;6.614;2023-05-10T09:29:22;9.85;;;3.42;;
61840;SDS011;47773;53.174;6.614;2023-05-10T09:34:30;4.05;;;3.03;;
61840;SDS011;47773;53.174;6.614;2023-05-10T09:36:57;5.75;;;3.20;;
61840;SDS011;47773;53.174;6.614;2023-05-10T09:39:38;4.60;;;2.88;;
61840;SDS011;47773;53.174;6.614;2023-05-10T09:42:05;5.00;;;3.03;;
61840;SDS011;47773;53.174;6.614;2023-05-10T09:44:34;7.55;;;4.07;;
61840;SDS011;47773;53.174;6.614;2023-05-10T09:47:00;4.63;;;3.42;;
61840;SDS011;47773;53.174;6.614;2023-05-10T09:49:26;4.63;;;3.42;;
61840;SDS011;47773;53.174;6.614;2023-05-10T09:52:06;6.03;;;3.50;;
61840;SDS011;47773;53.174;6.614;2023-05-10T09:54:32;5.43;;;3.10;;
61840;SDS011;47773;53.174;6.614;2023-05-10T09:56:59;8.10;;;4.30;;
61840;SDS011;47773;53.174;6.614;2023-05-10T09:59:26;7.10;;;4.35;;
61840;SDS011;47773;53.174;6.614;2023-05-10T10:01:53;5.47;;;2.67;;
61840;SDS011;47773;53.174;6.614;2023-05-10T10:04:25;9.35;;;4.18;;
61840;SDS011;47773;53.174;6.614;2023-05-10T10:07:01;6.03;;;4.20;;
61840;SDS011;47773;53.174;6.614;2023-05-10T10:09:28;8.65;;;4.47;;
61840;SDS011;47773;53.174;6.614;2023-05-10T10:11:54;8.65;;;4.90;;
61840;SDS011;47773;53.174;6.614;2023-05-10T10:14:21;9.48;;;4.70;;
61840;SDS011;47773;53.174;6.614;2023-05-10T10:16:48;5.90;;;4.53;;
61840;SDS011;47773;53.174;6.614;2023-05-10T10:19:15;8.88;;;4.40;;
61840;SDS011;47773;53.174;6.614;2023-05-10T10:21:40;8.57;;;4.97;;
61840;SDS011;47773;53.174;6.614;2023-05-10T10:24:06;9.40;;;5.40;;
61840;SDS011;47773;53.174;6.614;2023-05-10T10:26:35;7.90;;;4.80;;
61840;SDS011;47773;53.174;6.614;2023-05-10T10:32:03;10.07;;;4.80;;
61840;SDS011;47773;53.174;6.614;2023-05-10T10:34:38;8.40;;;4.93;;
61840;SDS011;47773;53.174;6.614;2023-05-10T10:37:05;8.02;;;4.40;;
61840;SDS011;47773;53.174;6.614;2023-05-10T10:39:31;6.28;;;4.60;;
61840;SDS011;47773;53.174;6.614;2023-05-10T10:41:57;8.18;;;4.30;;
61840;SDS011;47773;53.174;6.614;2023-05-10T10:47:05;8.05;;;4.80;;
61840;SDS011;47773;53.174;6.614;2023-05-10T10:52:27;7.00;;;4.40;;
61840;SDS011;47773;53.174;6.614;2023-05-10T10:57:28;8.07;;;4.20;;
61840;SDS011;47773;53.174;6.614;2023-05-10T11:05:47;9.93;;;4.82;;
61840;SDS011;47773;53.174;6.614;2023-05-10T11:08:25;9.40;;;4.75;;
61840;SDS011;47773;53.174;6.614;2023-05-10T11:13:34;9.27;;;5.40;;
61840;SDS011;47773;53.174;6.614;2023-05-10T11:18:51;6.65;;;5.15;;
61840;SDS011;47773;53.174;6.614;2023-05-10T11:21:27;11.77;;;4.95;;
61840;SDS011;47773;53.174;6.614;2023-05-10T11:23:57;9.02;;;5.30;;
61840;SDS011;47773;53.174;6.614;2023-05-10T11:26:31;7.63;;;4.93;;
61840;SDS011;47773;53.174;6.614;2023-05-10T11:28:59;5.50;;;3.55;;
61840;SDS011;47773;53.174;6.614;2023-05-10T11:31:26;8.93;;;5.25;;
61840;SDS011;47773;53.174;6.614;2023-05-10T11:33:57;7.88;;;5.47;;
61840;SDS011;47773;53.174;6.614;2023-05-10T11:36:25;6.75;;;5.05;;
61840;SDS011;47773;53.174;6.614;2023-05-10T11:38:53;8.70;;;4.80;;
61840;SDS011;47773;53.174;6.614;2023-05-10T11:41:20;10.63;;;5.30;;
61840;SDS011;47773;53.174;6.614;2023-05-10T11:43:48;8.20;;;5.68;;
61840;SDS011;47773;53.174;6.614;2023-05-10T11:46:15;12.30;;;6.18;;
61840;SDS011;47773;53.174;6.614;2023-05-10T11:48:43;12.48;;;6.32;;
61840;SDS011;47773;53.174;6.614;2023-05-10T11:51:09;10.55;;;6.13;;
61840;SDS011;47773;53.174;6.614;2023-05-10T11:53:36;11.75;;;6.30;;
61840;SDS011;47773;53.174;6.614;2023-05-10T11:56:06;12.27;;;6.97;;
61840;SDS011;47773;53.174;6.614;2023-05-10T11:58:32;11.70;;;7.10;;
61840;SDS011;47773;53.174;6.614;2023-05-10T12:00:59;12.68;;;6.97;;
61840;SDS011;47773;53.174;6.614;2023-05-10T12:03:25;11.20;;;6.57;;
61840;SDS011;47773;53.174;6.614;2023-05-10T12:05:52;11.60;;;6.15;;
61840;SDS011;47773;53.174;6.614;2023-05-10T12:08:22;12.18;;;6.47;;
61840;SDS011;47773;53.174;6.614;2023-05-10T12:10:49;11.13;;;6.47;;
61840;SDS011;47773;53.174;6.614;2023-05-10T12:13:15;8.48;;;6.10;;
61840;SDS011;47773;53.174;6.614;2023-05-10T12:15:42;9.85;;;5.30;;
61840;SDS011;47773;53.174;6.614;2023-05-10T12:18:11;10.18;;;6.50;;
61840;SDS011;47773;53.174;6.614;2023-05-10T12:20:38;10.73;;;6.80;;
61840;SDS011;47773;53.174;6.614;2023-05-10T12:23:04;10.25;;;6.45;;
61840;SDS011;47773;53.174;6.614;2023-05-10T12:25:33;9.35;;;6.13;;
61840;SDS011;47773;53.174;6.614;2023-05-10T12:28:02;14.73;;;6.40;;
61840;SDS011;47773;53.174;6.614;2023-05-10T12:30:31;13.50;;;6.35;;
61840;SDS011;47773;53.174;6.614;2023-05-10T12:33:02;14.43;;;6.38;;
61840;SDS011;47773;53.174;6.614;2023-05-10T12:35:32;14.10;;;6.95;;
61840;SDS011;47773;53.174;6.614;2023-05-10T12:40:54;11.00;;;6.60;;
61840;SDS011;47773;53.174;6.614;2023-05-10T12:43:22;14.02;;;7.53;;
61840;SDS011;47773;53.174;6.614;2023-05-10T12:45:48;14.23;;;6.63;;
61840;SDS011;47773;53.174;6.614;2023-05-10T12:48:14;13.70;;;7.60;;
61840;SDS011;47773;53.174;6.614;2023-05-10T12:50:40;12.93;;;6.70;;
61840;SDS011;47773;53.174;6.614;2023-05-10T12:53:06;10.45;;;6.70;;
61840;SDS011;47773;53.174;6.614;2023-05-10T12:55:32;10.18;;;6.80;;
61840;SDS011;47773;53.174;6.614;2023-05-10T12:57:57;15.48;;;7.20;;
61840;SDS011;47773;53.174;6.614;2023-05-10T13:00:23;11.57;;;5.82;;
61840;SDS011;47773;53.174;6.614;2023-05-10T13:02:49;12.13;;;7.13;;
61840;SDS011;47773;53.174;6.614;2023-05-10T13:05:15;12.55;;;7.53;;
61840;SDS011;47773;53.174;6.614;2023-05-10T13:07:40;12.65;;;6.88;;
61840;SDS011;47773;53.174;6.614;2023-05-10T13:10:06;13.52;;;7.03;;
61840;SDS011;47773;53.174;6.614;2023-05-10T13:12:32;13.77;;;7.25;;
61840;SDS011;47773;53.174;6.614;2023-05-10T13:14:58;11.88;;;7.32;;
61840;SDS011;47773;53.174;6.614;2023-05-10T13:17:25;13.77;;;6.88;;
61840;SDS011;47773;53.174;6.614;2023-05-10T13:19:51;14.07;;;6.95;;
61840;SDS011;47773;53.174;6.614;2023-05-10T13:22:16;11.60;;;7.00;;
61840;SDS011;47773;53.174;6.614;2023-05-10T13:24:42;11.85;;;7.00;;
61840;SDS011;47773;53.174;6.614;2023-05-10T13:27:08;12.73;;;7.28;;
61840;SDS011;47773;53.174;6.614;2023-05-10T13:29:34;14.98;;;6.53;;
61840;SDS011;47773;53.174;6.614;2023-05-10T13:31:59;11.18;;;6.43;;
61840;SDS011;47773;53.174;6.614;2023-05-10T13:34:26;10.60;;;6.07;;
61840;SDS011;47773;53.174;6.614;2023-05-10T13:36:52;10.63;;;5.78;;
61840;SDS011;47773;53.174;6.614;2023-05-10T13:39:19;11.63;;;6.45;;
61840;SDS011;47773;53.174;6.614;2023-05-10T13:41:45;11.77;;;6.80;;
61840;SDS011;47773;53.174;6.614;2023-05-10T13:44:12;11.52;;;6.68;;
61840;SDS011;47773;53.174;6.614;2023-05-10T13:46:39;15.10;;;8.15;;
61840;SDS011;47773;53.174;6.614;2023-05-10T13:49:05;13.55;;;7.18;;
61840;SDS011;47773;53.174;6.614;2023-05-10T13:51:31;11.18;;;7.22;;
61840;SDS011;47773;53.174;6.614;2023-05-10T13:53:57;13.20;;;7.88;;
61840;SDS011;47773;53.174;6.614;2023-05-10T13:56:23;12.27;;;7.75;;
61840;SDS011;47773;53.174;6.614;2023-05-10T13:58:48;17.60;;;7.90;;
61840;SDS011;47773;53.174;6.614;2023-05-10T14:01:14;16.90;;;7.88;;
61840;SDS011;47773;53.174;6.614;2023-05-10T14:03:40;11.82;;;7.53;;
61840;SDS011;47773;53.174;6.614;2023-05-10T14:06:06;14.35;;;7.57;;
61840;SDS011;47773;53.174;6.614;2023-05-10T14:08:32;13.30;;;7.63;;
61840;SDS011;47773;53.174;6.614;2023-05-10T14:10:59;14.98;;;7.38;;
61840;SDS011;47773;53.174;6.614;2023-05-10T14:13:24;12.73;;;7.47;;
61840;SDS011;47773;53.174;6.614;2023-05-10T14:15:50;11.77;;;7.47;;
61840;SDS011;47773;53.174;6.614;2023-05-10T14:18:17;14.90;;;7.18;;
61840;SDS011;47773;53.174;6.614;2023-05-10T14:20:43;19.25;;;8.18;;
61840;SDS011;47773;53.174;6.614;2023-05-10T14:23:08;15.95;;;8.05;;
61840;SDS011;47773;53.174;6.614;2023-05-10T14:25:34;12.75;;;7.18;;
61840;SDS011;47773;53.174;6.614;2023-05-10T14:28:00;15.38;;;7.53;;
61840;SDS011;47773;53.174;6.614;2023-05-10T14:30:25;10.73;;;7.30;;
61840;SDS011;47773;53.174;6.614;2023-05-10T14:32:51;12.95;;;7.82;;
61840;SDS011;47773;53.174;6.614;2023-05-10T14:35:19;14.75;;;7.32;;
61840;SDS011;47773;53.174;6.614;2023-05-10T14:37:45;12.35;;;7.68;;
61840;SDS011;47773;53.174;6.614;2023-05-10T14:40:10;14.73;;;8.18;;
61840;SDS011;47773;53.174;6.614;2023-05-10T14:42:37;11.68;;;7.43;;
61840;SDS011;47773;53.174;6.614;2023-05-10T14:45:03;17.10;;;8.55;;
61840;SDS011;47773;53.174;6.614;2023-05-10T14:47:29;13.02;;;8.55;;
61840;SDS011;47773;53.174;6.614;2023-05-10T14:49:55;17.80;;;8.75;;
61840;SDS011;47773;53.174;6.614;2023-05-10T14:52:20;12.35;;;7.05;;
61840;SDS011;47773;53.174;6.614;2023-05-10T14:54:46;10.55;;;6.57;;
61840;SDS011;47773;53.174;6.614;2023-05-10T14:57:12;14.45;;;7.50;;
61840;SDS011;47773;53.174;6.614;2023-05-10T14:59:38;12.05;;;6.32;;
61840;SDS011;47773;53.174;6.614;2023-05-10T15:02:04;15.35;;;7.53;;
61840;SDS011;47773;53.174;6.614;2023-05-10T15:04:30;11.68;;;7.55;;
61840;SDS011;47773;53.174;6.614;2023-05-10T15:06:56;18.55;;;8.65;;
61840;SDS011;47773;53.174;6.614;2023-05-10T15:09:25;16.75;;;8.80;;
61840;SDS011;47773;53.174;6.614;2023-05-10T15:11:52;14.10;;;9.57;;
61840;SDS011;47773;53.174;6.614;2023-05-10T15:14:18;15.63;;;8.52;;
61840;SDS011;47773;53.174;6.614;2023-05-10T15:16:44;13.38;;;8.93;;
61840;SDS011;47773;53.174;6.614;2023-05-10T15:19:09;14.18;;;8.23;;
61840;SDS011;47773;53.174;6.614;2023-05-10T15:21:35;13.00;;;8.63;;